sensor_id;sensor_type;location;lat;lon;timestamp;pressure;altitude;pressure_sealevel;temperature;humidity
41945;BME280;63122;52.424;13.458;2023-08-06T00:00:39;100202.47;;;18.33;100.00
41945;BME280;63122;52.424;13.458;2023-08-06T00:02:52;100202.03;;;18.36;100.00
41945;BME280;63122;52.424;13.458;2023-08-06T00:04:47;100204.47;;;18.38;100.00
41945;BME280;63122;52.424;13.458;2023-08-06T00:06:43;100204.31;;;18.33;100.00
41945;BME280;63122;52.424;13.458;2023-08-06T00:08:35;100203.13;;;18.22;100.00
41945;BME280;63122;52.424;13.458;2023-08-06T00:10:33;100199.22;;;18.24;100.00
41945;BME280;63122;52.424;13.458;2023-08-06T00:12:30;100200.88;;;18.19;100.00
41945;BME280;63122;52.424;13.458;2023-08-06T00:14:33;100192.44;;;18.22;100.00
41945;BME280;63122;52.424;13.458;2023-08-06T00:16:29;100189.16;;;18.26;100.00
41945;BME280;63122;52.424;13.458;2023-08-06T00:18:22;100185.84;;;18.31;100.00
41945;BME280;63122;52.424;13.458;2023-08-06T00:20:17;100190.97;;;18.33;100.00
41945;BME280;63122;52.424;13.458;2023-08-06T00:22:13;100193.00;;;18.37;100.00
41945;BME280;63122;52.424;13.458;2023-08-06T00:24:08;100185.19;;;18.36;100.00
41945;BME280;63122;52.424;13.458;2023-08-06T00:26:09;100183.38;;;18.30;100.00
41945;BME280;63122;52.424;13.458;2023-08-06T00:28:01;100178.03;;;18.30;100.00
41945;BME280;63122;52.424;13.458;2023-08-06T00:29:56;100178.63;;;18.32;100.00
41945;BME280;63122;52.424;13.458;2023-08-06T00:31:52;100178.66;;;18.25;100.00
41945;BME280;63122;52.424;13.458;2023-08-06T00:33:48;100186.06;;;18.23;100.00
41945;BME280;63122;52.424;13.458;2023-08-06T00:35:54;100183.41;;;18.23;100.00
41945;BME280;63122;52.424;13.458;2023-08-06T00:37:49;100180.13;;;18.21;100.00
41945;BME280;63122;52.424;13.458;2023-08-06T00:39:44;100179.97;;;18.16;100.00
41945;BME280;63122;52.424;13.458;2023-08-06T00:41:47;100182.63;;;18.16;100.00
41945;BME280;63122;52.424;13.458;2023-08-06T00:43:43;100179.78;;;18.17;100.00
41945;BME280;63122;52.424;13.458;2023-08-06T00:48:58;100170.28;;;18.21;100.00
41945;BME280;63122;52.424;13.458;2023-08-06T00:50:54;100174.84;;;18.14;100.00
41945;BME280;63122;52.424;13.458;2023-08-06T00:52:55;100181.59;;;18.17;100.00
41945;BME280;63122;52.424;13.458;2023-08-06T00:54:50;100171.34;;;18.13;100.00
41945;BME280;63122;52.424;13.458;2023-08-06T00:56:51;100177.13;;;18.10;100.00
41945;BME280;63122;52.424;13.458;2023-08-06T01:02:06;100172.22;;;18.07;100.00
41945;BME280;63122;52.424;13.458;2023-08-06T01:07:35;100172.84;;;18.03;100.00
41945;BME280;63122;52.424;13.458;2023-08-06T01:09:40;100169.38;;;17.95;100.00
41945;BME280;63122;52.424;13.458;2023-08-06T01:11:47;100169.19;;;17.90;100.00
41945;BME280;63122;52.424;13.458;2023-08-06T01:13:55;100166.13;;;17.87;100.00
41945;BME280;63122;52.424;13.458;2023-08-06T01:15:55;100171.28;;;17.81;100.00
41945;BME280;63122;52.424;13.458;2023-08-06T01:17:52;100165.97;;;17.75;100.00
41945;BME280;63122;52.424;13.458;2023-08-06T01:19:48;100158.81;;;17.68;100.00
41945;BME280;63122;52.424;13.458;2023-08-06T01:21:43;100168.28;;;17.64;100.00
41945;BME280;63122;52.424;13.458;2023-08-06T01:23:38;100153.06;;;17.65;100.00
41945;BME280;63122;52.424;13.458;2023-08-06T01:25:39;100157.16;;;17.74;100.00
41945;BME280;63122;52.424;13.458;2023-08-06T01:27:40;100152.38;;;17.83;100.00
41945;BME280;63122;52.424;13.458;2023-08-06T01:29:42;100152.59;;;17.88;100.00
41945;BME280;63122;52.424;13.458;2023-08-06T01:31:41;100142.13;;;17.87;100.00
41945;BME280;63122;52.424;13.458;2023-08-06T01:33:38;100139.63;;;17.92;100.00
41945;BME280;63122;52.424;13.458;2023-08-06T01:35:37;100140.88;;;17.89;100.00
41945;BME280;63122;52.424;13.458;2023-08-06T01:37:33;100134.53;;;17.83;100.00
41945;BME280;63122;52.424;13.458;2023-08-06T01:39:30;100140.47;;;17.85;100.00
41945;BME280;63122;52.424;13.458;2023-08-06T01:41:28;100135.56;;;17.82;100.00
41945;BME280;63122;52.424;13.458;2023-08-06T01:43:23;100130.84;;;17.78;100.00
41945;BME280;63122;52.424;13.458;2023-08-06T01:45:16;100134.53;;;17.83;100.00
41945;BME280;63122;52.424;13.458;2023-08-06T01:47:11;100133.94;;;17.81;100.00
41945;BME280;63122;52.424;13.458;2023-08-06T01:49:04;100131.50;;;17.73;100.00
41945;BME280;63122;52.424;13.458;2023-08-06T01:50:59;100132.13;;;17.75;100.00
41945;BME280;63122;52.424;13.458;2023-08-06T01:52:57;100123.09;;;17.76;100.00
41945;BME280;63122;52.424;13.458;2023-08-06T01:54:50;100121.84;;;17.72;100.00
41945;BME280;63122;52.424;13.458;2023-08-06T01:56:45;100117.38;;;17.66;100.00
41945;BME280;63122;52.424;13.458;2023-08-06T01:58:41;100115.13;;;17.63;100.00
41945;BME280;63122;52.424;13.458;2023-08-06T02:00:40;100115.34;;;17.61;100.00
41945;BME280;63122;52.424;13.458;2023-08-06T02:02:36;100112.88;;;17.60;100.00
41945;BME280;63122;52.424;13.458;2023-08-06T02:04:29;100108.59;;;17.59;100.00
41945;BME280;63122;52.424;13.458;2023-08-06T02:06:24;100112.72;;;17.54;100.00
41945;BME280;63122;52.424;13.458;2023-08-06T02:08:19;100106.78;;;17.52;100.00
41945;BME280;63122;52.424;13.458;2023-08-06T02:10:15;100108.44;;;17.47;100.00
41945;BME280;63122;52.424;13.458;2023-08-06T02:12:08;100101.28;;;17.40;100.00
41945;BME280;63122;52.424;13.458;2023-08-06T02:14:04;100103.97;;;17.34;100.00
41945;BME280;63122;52.424;13.458;2023-08-06T02:15:59;100099.88;;;17.31;100.00
41945;BME280;63122;52.424;13.458;2023-08-06T02:17:54;100097.81;;;17.33;100.00
41945;BME280;63122;52.424;13.458;2023-08-06T02:19:47;100100.50;;;17.33;100.00
41945;BME280;63122;52.424;13.458;2023-08-06T02:21:42;100107.47;;;17.34;100.00
41945;BME280;63122;52.424;13.458;2023-08-06T02:23:40;100099.84;;;17.38;100.00
41945;BME280;63122;52.424;13.458;2023-08-06T02:25:33;100095.97;;;17.34;100.00
41945;BME280;63122;52.424;13.458;2023-08-06T02:27:28;100094.72;;;17.36;100.00
41945;BME280;63122;52.424;13.458;2023-08-06T02:29:23;100092.66;;;17.38;100.00
41945;BME280;63122;52.424;13.458;2023-08-06T02:31:19;100089.59;;;17.35;100.00
41945;BME280;63122;52.424;13.458;2023-08-06T02:33:11;100083.47;;;17.34;100.00
41945;BME280;63122;52.424;13.458;2023-08-06T02:35:07;100083.84;;;17.38;100.00
41945;BME280;63122;52.424;13.458;2023-08-06T02:37:03;100082.84;;;17.32;100.00
41945;BME280;63122;52.424;13.458;2023-08-06T02:39:01;100084.69;;;17.38;100.00
41945;BME280;63122;52.424;13.458;2023-08-06T02:40:56;100082.63;;;17.34;100.00
41945;BME280;63122;52.424;13.458;2023-08-06T02:42:51;100074.22;;;17.30;100.00
41945;BME280;63122;52.424;13.458;2023-08-06T02:44:47;100077.13;;;17.29;100.00
41945;BME280;63122;52.424;13.458;2023-08-06T02:46:44;100073.44;;;17.30;100.00
41945;BME280;63122;52.424;13.458;2023-08-06T02:48:37;100071.38;;;17.32;100.00
41945;BME280;63122;52.424;13.458;2023-08-06T02:50:37;100072.19;;;17.32;100.00
41945;BME280;63122;52.424;13.458;2023-08-06T02:52:33;100058.06;;;17.25;100.00
41945;BME280;63122;52.424;13.458;2023-08-06T02:54:33;100069.56;;;17.19;100.00
41945;BME280;63122;52.424;13.458;2023-08-06T02:56:28;100068.53;;;17.13;100.00
41945;BME280;63122;52.424;13.458;2023-08-06T02:58:24;100074.53;;;17.08;100.00
41945;BME280;63122;52.424;13.458;2023-08-06T03:00:19;100074.28;;;17.10;100.00
41945;BME280;63122;52.424;13.458;2023-08-06T03:02:12;100072.88;;;17.07;100.00
41945;BME280;63122;52.424;13.458;2023-08-06T03:04:07;100077.81;;;17.04;100.00
41945;BME280;63122;52.424;13.458;2023-08-06T03:06:02;100076.34;;;17.08;100.00
41945;BME280;63122;52.424;13.458;2023-08-06T03:07:58;100074.72;;;17.00;100.00
41945;BME280;63122;52.424;13.458;2023-08-06T03:09:55;100074.94;;;17.05;100.00
41945;BME280;63122;52.424;13.458;2023-08-06T03:11:55;100067.50;;;17.14;100.00
41945;BME280;63122;52.424;13.458;2023-08-06T03:14:43;100065.47;;;17.16;100.00
41945;BME280;63122;52.424;13.458;2023-08-06T03:16:38;100063.63;;;17.17;100.00
41945;BME280;63122;52.424;13.458;2023-08-06T03:18:34;100060.56;;;17.13;100.00
41945;BME280;63122;52.424;13.458;2023-08-06T03:20:26;100057.09;;;17.06;100.00
41945;BME280;63122;52.424;13.458;2023-08-06T03:22:22;100054.66;;;17.04;100.00
41945;BME280;63122;52.424;13.458;2023-08-06T03:24:17;100053.22;;;17.02;100.00
41945;BME280;63122;52.424;13.458;2023-08-06T03:26:14;100042.97;;;17.05;100.00
41945;BME280;63122;52.424;13.458;2023-08-06T03:28:10;100040.06;;;17.07;100.00
41945;BME280;63122;52.424;13.458;2023-08-06T03:30:07;100039.06;;;17.08;100.00
41945;BME280;63122;52.424;13.458;2023-08-06T03:32:03;100035.19;;;17.04;100.00
41945;BME280;63122;52.424;13.458;2023-08-06T03:33:58;100036.41;;;17.01;100.00
41945;BME280;63122;52.424;13.458;2023-08-06T03:35:53;100031.06;;;17.01;100.00
41945;BME280;63122;52.424;13.458;2023-08-06T03:37:46;100038.44;;;17.06;100.00
41945;BME280;63122;52.424;13.458;2023-08-06T03:39:42;100027.97;;;17.11;100.00
41945;BME280;63122;52.424;13.458;2023-08-06T03:41:37;100025.09;;;17.12;100.00
41945;BME280;63122;52.424;13.458;2023-08-06T03:43:32;100025.31;;;17.11;100.00
41945;BME280;63122;52.424;13.458;2023-08-06T03:45:27;100019.16;;;17.10;100.00
41945;BME280;63122;52.424;13.458;2023-08-06T03:47:22;100016.28;;;17.12;100.00
41945;BME280;63122;52.424;13.458;2023-08-06T03:49:15;100016.88;;;17.14;100.00
41945;BME280;63122;52.424;13.458;2023-08-06T03:51:10;100017.72;;;17.08;100.00
41945;BME280;63122;52.424;13.458;2023-08-06T03:53:40;100016.94;;;17.01;100.00
41945;BME280;63122;52.424;13.458;2023-08-06T03:55:36;100010.41;;;17.03;100.00
41945;BME280;63122;52.424;13.458;2023-08-06T03:57:33;100010.34;;;17.10;100.00
41945;BME280;63122;52.424;13.458;2023-08-06T03:59:26;100005.63;;;17.12;100.00
41945;BME280;63122;52.424;13.458;2023-08-06T04:01:21;100007.84;;;17.15;100.00
41945;BME280;63122;52.424;13.458;2023-08-06T04:03:17;100000.06;;;17.20;100.00
41945;BME280;63122;52.424;13.458;2023-08-06T04:05:12;99999.84;;;17.22;100.00
41945;BME280;63122;52.424;13.458;2023-08-06T04:07:07;100005.19;;;17.15;100.00
41945;BME280;63122;52.424;13.458;2023-08-06T04:09:00;99996.81;;;17.18;100.00
41945;BME280;63122;52.424;13.458;2023-08-06T04:10:55;99989.00;;;17.17;100.00
41945;BME280;63122;52.424;13.458;2023-08-06T04:12:50;99992.06;;;17.20;100.00
41945;BME280;63122;52.424;13.458;2023-08-06T04:14:46;99992.31;;;17.12;100.00
41945;BME280;63122;52.424;13.458;2023-08-06T04:16:42;99990.91;;;17.03;100.00
41945;BME280;63122;52.424;13.458;2023-08-06T04:18:37;99984.97;;;17.01;100.00
41945;BME280;63122;52.424;13.458;2023-08-06T04:20:30;99988.31;;;16.69;100.00
41945;BME280;63122;52.424;13.458;2023-08-06T04:22:26;99987.50;;;16.75;100.00
41945;BME280;63122;52.424;13.458;2023-08-06T04:24:19;99986.66;;;16.81;100.00
41945;BME280;63122;52.424;13.458;2023-08-06T04:26:14;99984.00;;;16.81;100.00
41945;BME280;63122;52.424;13.458;2023-08-06T04:28:10;99970.84;;;16.87;100.00
41945;BME280;63122;52.424;13.458;2023-08-06T04:30:06;99974.97;;;16.89;100.00
41945;BME280;63122;52.424;13.458;2023-08-06T04:32:02;99962.84;;;16.93;100.00
41945;BME280;63122;52.424;13.458;2023-08-06T04:33:57;99966.91;;;16.96;100.00
41945;BME280;63122;52.424;13.458;2023-08-06T04:35:54;99966.53;;;16.92;100.00
41945;BME280;63122;52.424;13.458;2023-08-06T04:37:48;99970.22;;;16.91;100.00
41945;BME280;63122;52.424;13.458;2023-08-06T04:39:43;99961.59;;;16.96;100.00
41945;BME280;63122;52.424;13.458;2023-08-06T04:41:39;99959.16;;;16.94;100.00
41945;BME280;63122;52.424;13.458;2023-08-06T04:43:37;99960.38;;;16.92;100.00
41945;BME280;63122;52.424;13.458;2023-08-06T04:45:32;99957.56;;;16.73;100.00
41945;BME280;63122;52.424;13.458;2023-08-06T04:47:25;99957.19;;;16.63;100.00
41945;BME280;63122;52.424;13.458;2023-08-06T04:49:21;99949.44;;;16.61;100.00
41945;BME280;63122;52.424;13.458;2023-08-06T04:51:16;99949.63;;;16.60;100.00
41945;BME280;63122;52.424;13.458;2023-08-06T04:53:12;99944.91;;;16.68;100.00
41945;BME280;63122;52.424;13.458;2023-08-06T04:55:08;99951.44;;;16.73;100.00
41945;BME280;63122;52.424;13.458;2023-08-06T04:57:04;99941.81;;;16.72;100.00
41945;BME280;63122;52.424;13.458;2023-08-06T04:59:00;99944.47;;;16.72;100.00
41945;BME280;63122;52.424;13.458;2023-08-06T05:00:55;99939.34;;;16.70;100.00
41945;BME280;63122;52.424;13.458;2023-08-06T05:02:51;99939.94;;;16.72;100.00
41945;BME280;63122;52.424;13.458;2023-08-06T05:04:44;99940.16;;;16.77;100.00
41945;BME280;63122;52.424;13.458;2023-08-06T05:06:39;99942.41;;;16.80;100.00
41945;BME280;63122;52.424;13.458;2023-08-06T05:08:35;99941.56;;;16.87;100.00
41945;BME280;63122;52.424;13.458;2023-08-06T05:10:28;99941.56;;;16.87;100.00
41945;BME280;63122;52.424;13.458;2023-08-06T05:12:24;99938.09;;;16.79;100.00
41945;BME280;63122;52.424;13.458;2023-08-06T05:14:22;99933.59;;;16.80;100.00
41945;BME280;63122;52.424;13.458;2023-08-06T05:16:17;99936.06;;;16.75;100.00
41945;BME280;63122;52.424;13.458;2023-08-06T05:18:10;99934.03;;;16.70;100.00
41945;BME280;63122;52.424;13.458;2023-08-06T05:20:07;99927.88;;;16.76;100.00
41945;BME280;63122;52.424;13.458;2023-08-06T05:22:03;99919.03;;;16.82;100.00
41945;BME280;63122;52.424;13.458;2023-08-06T05:23:59;99918.00;;;16.90;100.00
41945;BME280;63122;52.424;13.458;2023-08-06T05:25:55;99919.88;;;16.76;100.00
41945;BME280;63122;52.424;13.458;2023-08-06T05:27:50;99911.25;;;16.74;100.00
41945;BME280;63122;52.424;13.458;2023-08-06T05:29:48;99919.91;;;16.69;100.00
41945;BME280;63122;52.424;13.458;2023-08-06T05:31:44;99910.72;;;16.65;100.00
41945;BME280;63122;52.424;13.458;2023-08-06T05:33:40;99902.06;;;16.70;100.00
41945;BME280;63122;52.424;13.458;2023-08-06T05:35:35;99908.22;;;16.77;100.00
41945;BME280;63122;52.424;13.458;2023-08-06T05:37:28;99905.72;;;16.82;100.00
41945;BME280;63122;52.424;13.458;2023-08-06T05:39:24;99906.94;;;16.80;100.00
41945;BME280;63122;52.424;13.458;2023-08-06T05:41:19;99910.63;;;16.86;100.00
41945;BME280;63122;52.424;13.458;2023-08-06T05:43:15;99905.06;;;16.87;100.00
41945;BME280;63122;52.424;13.458;2023-08-06T05:45:13;99908.97;;;16.91;100.00
41945;BME280;63122;52.424;13.458;2023-08-06T05:47:09;99906.06;;;16.93;100.00
41945;BME280;63122;52.424;13.458;2023-08-06T05:49:04;99911.44;;;16.86;100.00
41945;BME280;63122;52.424;13.458;2023-08-06T05:51:00;99909.41;;;16.81;100.00
41945;BME280;63122;52.424;13.458;2023-08-06T05:52:56;99913.28;;;16.86;100.00
41945;BME280;63122;52.424;13.458;2023-08-06T05:54:53;99911.41;;;16.93;100.00
41945;BME280;63122;52.424;13.458;2023-08-06T05:56:50;99907.28;;;16.97;100.00
41945;BME280;63122;52.424;13.458;2023-08-06T05:58:45;99903.63;;;16.98;100.00
41945;BME280;63122;52.424;13.458;2023-08-06T06:00:46;99903.81;;;16.96;100.00
41945;BME280;63122;52.424;13.458;2023-08-06T06:02:38;99899.72;;;17.01;100.00
41945;BME280;63122;52.424;13.458;2023-08-06T06:04:34;99897.22;;;17.06;100.00
41945;BME280;63122;52.424;13.458;2023-08-06T06:06:30;99897.41;;;17.11;100.00
41945;BME280;63122;52.424;13.458;2023-08-06T06:08:25;99894.53;;;17.12;100.00
41945;BME280;63122;52.424;13.458;2023-08-06T06:10:21;99899.63;;;17.14;100.00
41945;BME280;63122;52.424;13.458;2023-08-06T06:12:16;99897.97;;;17.20;100.00
41945;BME280;63122;52.424;13.458;2023-08-06T06:14:10;99896.75;;;17.22;100.00
41945;BME280;63122;52.424;13.458;2023-08-06T06:16:08;99897.94;;;17.26;100.00
41945;BME280;63122;52.424;13.458;2023-08-06T06:18:04;99894.84;;;17.30;100.00
41945;BME280;63122;52.424;13.458;2023-08-06T06:19:57;99891.16;;;17.31;100.00
41945;BME280;63122;52.424;13.458;2023-08-06T06:21:53;99897.94;;;17.26;100.00
41945;BME280;63122;52.424;13.458;2023-08-06T06:23:46;99887.47;;;17.25;100.00
41945;BME280;63122;52.424;13.458;2023-08-06T06:25:42;99888.31;;;17.25;100.00
41945;BME280;63122;52.424;13.458;2023-08-06T06:27:38;99883.19;;;17.24;100.00
41945;BME280;63122;52.424;13.458;2023-08-06T06:29:31;99875.84;;;17.19;100.00
41945;BME280;63122;52.424;13.458;2023-08-06T06:31:29;99880.78;;;17.16;100.00
41945;BME280;63122;52.424;13.458;2023-08-06T06:33:25;99877.09;;;17.17;100.00
41945;BME280;63122;52.424;13.458;2023-08-06T06:35:20;99880.75;;;17.22;100.00
41945;BME280;63122;52.424;13.458;2023-08-06T06:37:15;99877.06;;;17.23;100.00
41945;BME280;63122;52.424;13.458;2023-08-06T06:39:10;99878.25;;;17.27;100.00
41945;BME280;63122;52.424;13.458;2023-08-06T06:41:03;99875.16;;;17.31;100.00
41945;BME280;63122;52.424;13.458;2023-08-06T06:42:59;99871.25;;;17.33;100.00
41945;BME280;63122;52.424;13.458;2023-08-06T06:44:54;99869.19;;;17.35;100.00
41945;BME280;63122;52.424;13.458;2023-08-06T06:46:52;99864.66;;;17.36;100.00
41945;BME280;63122;52.424;13.458;2023-08-06T06:48:47;99865.25;;;17.38;100.00
41945;BME280;63122;52.424;13.458;2023-08-06T06:50:42;99866.88;;;17.39;100.00
41945;BME280;63122;52.424;13.458;2023-08-06T06:52:37;99864.81;;;17.41;100.00
41945;BME280;63122;52.424;13.458;2023-08-06T06:54:33;99860.91;;;17.44;100.00
41945;BME280;63122;52.424;13.458;2023-08-06T06:56:26;99871.16;;;17.47;100.00
41945;BME280;63122;52.424;13.458;2023-08-06T06:58:21;99873.59;;;17.48;100.00
41945;BME280;63122;52.424;13.458;2023-08-06T07:00:16;99882.63;;;17.47;100.00
41945;BME280;63122;52.424;13.458;2023-08-06T07:02:14;99885.94;;;17.42;100.00
41945;BME280;63122;52.424;13.458;2023-08-06T07:04:10;99881.91;;;17.33;100.00
41945;BME280;63122;52.424;13.458;2023-08-06T07:06:02;99880.69;;;17.29;100.00
41945;BME280;63122;52.424;13.458;2023-08-06T07:07:58;99885.22;;;17.29;100.00
41945;BME280;63122;52.424;13.458;2023-08-06T07:09:53;99883.41;;;17.22;100.00
41945;BME280;63122;52.424;13.458;2023-08-06T07:11:49;99875.63;;;17.21;100.00
41945;BME280;63122;52.424;13.458;2023-08-06T07:13:44;99882.97;;;17.25;100.00
41945;BME280;63122;52.424;13.458;2023-08-06T07:15:40;99886.44;;;17.26;100.00
41945;BME280;63122;52.424;13.458;2023-08-06T07:17:37;99878.91;;;17.16;100.00
41945;BME280;63122;52.424;13.458;2023-08-06T07:19:33;99878.56;;;17.12;100.00
41945;BME280;63122;52.424;13.458;2023-08-06T07:21:28;99882.41;;;17.17;100.00
41945;BME280;63122;52.424;13.458;2023-08-06T07:23:21;99888.78;;;17.16;100.00
41945;BME280;63122;52.424;13.458;2023-08-06T07:25:17;99885.38;;;17.02;100.00
41945;BME280;63122;52.424;13.458;2023-08-06T07:27:12;99879.72;;;16.78;100.00
41945;BME280;63122;52.424;13.458;2023-08-06T07:29:07;99887.38;;;16.61;100.00
41945;BME280;63122;52.424;13.458;2023-08-06T07:31:03;99887.00;;;16.50;100.00
41945;BME280;63122;52.424;13.458;2023-08-06T07:33:03;99890.69;;;16.43;100.00
41945;BME280;63122;52.424;13.458;2023-08-06T07:34:58;99889.25;;;16.40;100.00
41945;BME280;63122;52.424;13.458;2023-08-06T07:36:55;99892.75;;;16.47;100.00
41945;BME280;63122;52.424;13.458;2023-08-06T07:38:50;99894.78;;;16.45;100.00
41945;BME280;63122;52.424;13.458;2023-08-06T07:40:48;99883.50;;;16.50;100.00
41945;BME280;63122;52.424;13.458;2023-08-06T07:42:43;99889.25;;;16.53;100.00
41945;BME280;63122;52.424;13.458;2023-08-06T07:44:38;99898.03;;;16.54;100.00
41945;BME280;63122;52.424;13.458;2023-08-06T07:46:33;99890.66;;;16.56;100.00
41945;BME280;63122;52.424;13.458;2023-08-06T07:48:31;99882.03;;;16.61;100.00
41945;BME280;63122;52.424;13.458;2023-08-06T07:50:27;99889.59;;;16.64;100.00
41945;BME280;63122;52.424;13.458;2023-08-06T07:52:22;99886.09;;;16.70;100.00
41945;BME280;63122;52.424;13.458;2023-08-06T07:54:17;99884.63;;;16.74;100.00
41945;BME280;63122;52.424;13.458;2023-08-06T07:56:13;99882.81;;;16.75;100.00
41945;BME280;63122;52.424;13.458;2023-08-06T07:58:06;99882.19;;;16.73;100.00
41945;BME280;63122;52.424;13.458;2023-08-06T08:00:01;99877.50;;;16.68;100.00
41945;BME280;63122;52.424;13.458;2023-08-06T08:01:57;99890.00;;;16.67;100.00
41945;BME280;63122;52.424;13.458;2023-08-06T08:03:55;99886.31;;;16.68;100.00
41945;BME280;63122;52.424;13.458;2023-08-06T08:05:54;99882.63;;;16.69;100.00
41945;BME280;63122;52.424;13.458;2023-08-06T08:07:48;99886.47;;;16.80;100.00
41945;BME280;63122;52.424;13.458;2023-08-06T08:09:44;99886.66;;;16.79;100.00
41945;BME280;63122;52.424;13.458;2023-08-06T08:11:41;99881.38;;;16.72;100.00
41945;BME280;63122;52.424;13.458;2023-08-06T08:13:36;99885.47;;;16.75;100.00
41945;BME280;63122;52.424;13.458;2023-08-06T08:15:32;99883.38;;;16.83;100.00
41945;BME280;63122;52.424;13.458;2023-08-06T08:17:27;99872.94;;;16.82;100.00
41945;BME280;63122;52.424;13.458;2023-08-06T08:19:25;99873.16;;;16.80;100.00
41945;BME280;63122;52.424;13.458;2023-08-06T08:21:20;99873.34;;;16.79;100.00
41945;BME280;63122;52.424;13.458;2023-08-06T08:23:13;99867.84;;;16.74;100.00
41945;BME280;63122;52.424;13.458;2023-08-06T08:25:08;99870.09;;;16.77;100.00
41945;BME280;63122;52.424;13.458;2023-08-06T08:27:01;99862.28;;;16.82;100.00
41945;BME280;63122;52.424;13.458;2023-08-06T08:28:58;99864.13;;;16.81;100.00
41945;BME280;63122;52.424;13.458;2023-08-06T08:30:50;99861.81;;;16.92;100.00
41945;BME280;63122;52.424;13.458;2023-08-06T08:32:47;99861.00;;;16.98;100.00
41945;BME280;63122;52.424;13.458;2023-08-06T08:34:42;99858.09;;;17.06;100.00
41945;BME280;63122;52.424;13.458;2023-08-06T08:36:56;99851.75;;;17.01;100.00
41945;BME280;63122;52.424;13.458;2023-08-06T08:39:23;99849.25;;;17.12;100.00
41945;BME280;63122;52.424;13.458;2023-08-06T08:41:19;99835.31;;;17.10;100.00
41945;BME280;63122;52.424;13.458;2023-08-06T08:43:15;99834.88;;;17.13;100.00
41945;BME280;63122;52.424;13.458;2023-08-06T08:45:12;99836.41;;;17.28;100.00
41945;BME280;63122;52.424;13.458;2023-08-06T08:47:10;99826.91;;;17.39;100.00
41945;BME280;63122;52.424;13.458;2023-08-06T08:49:06;99823.69;;;17.30;100.00
41945;BME280;63122;52.424;13.458;2023-08-06T08:51:06;99824.31;;;17.32;100.00
41945;BME280;63122;52.424;13.458;2023-08-06T08:53:03;99816.84;;;17.41;100.00
41945;BME280;63122;52.424;13.458;2023-08-06T08:54:59;99820.28;;;17.48;100.00
41945;BME280;63122;52.424;13.458;2023-08-06T08:56:53;99820.00;;;17.56;100.00
41945;BME280;63122;52.424;13.458;2023-08-06T08:58:49;99818.09;;;17.64;100.00
41945;BME280;63122;52.424;13.458;2023-08-06T09:00:46;99814.44;;;17.58;100.00
41945;BME280;63122;52.424;13.458;2023-08-06T09:02:43;99821.03;;;17.55;100.00
41945;BME280;63122;52.424;13.458;2023-08-06T09:04:40;99812.59;;;17.59;100.00
41945;BME280;63122;52.424;13.458;2023-08-06T09:06:39;99808.31;;;17.58;100.00
41945;BME280;63122;52.424;13.458;2023-08-06T09:08:39;99804.91;;;17.69;100.00
41945;BME280;63122;52.424;13.458;2023-08-06T09:10:37;99797.88;;;17.75;100.00
41945;BME280;63122;52.424;13.458;2023-08-06T09:12:33;99796.25;;;17.74;100.00
41945;BME280;63122;52.424;13.458;2023-08-06T09:14:29;99799.50;;;17.76;100.00
41945;BME280;63122;52.424;13.458;2023-08-06T09:16:22;99800.34;;;17.76;100.00
41945;BME280;63122;52.424;13.458;2023-08-06T09:18:25;99798.03;;;17.61;100.00
41945;BME280;63122;52.424;13.458;2023-08-06T09:20:21;99804.06;;;17.50;100.00
41945;BME280;63122;52.424;13.458;2023-08-06T09:22:16;99801.22;;;17.45;100.00
41945;BME280;63122;52.424;13.458;2023-08-06T09:24:12;99796.94;;;17.44;100.00
41945;BME280;63122;52.424;13.458;2023-08-06T09:26:11;99798.94;;;17.48;100.00
41945;BME280;63122;52.424;13.458;2023-08-06T09:28:08;99789.03;;;17.55;100.00
41945;BME280;63122;52.424;13.458;2023-08-06T09:30:04;99790.81;;;17.62;100.00
41945;BME280;63122;52.424;13.458;2023-08-06T09:32:00;99787.13;;;17.63;100.00
41945;BME280;63122;52.424;13.458;2023-08-06T09:33:55;99780.09;;;17.68;100.00
41945;BME280;63122;52.424;13.458;2023-08-06T09:35:54;99778.47;;;17.67;100.00
41945;BME280;63122;52.424;13.458;2023-08-06T09:37:52;99774.97;;;17.67;100.00
41945;BME280;63122;52.424;13.458;2023-08-06T09:39:47;99775.22;;;17.65;100.00
41945;BME280;63122;52.424;13.458;2023-08-06T09:41:45;99768.59;;;17.49;100.00
41945;BME280;63122;52.424;13.458;2023-08-06T09:43:41;99770.72;;;17.40;100.00
41945;BME280;63122;52.424;13.458;2023-08-06T09:45:37;99776.19;;;17.46;100.00
41945;BME280;63122;52.424;13.458;2023-08-06T09:47:33;99768.34;;;17.51;100.00
41945;BME280;63122;52.424;13.458;2023-08-06T09:49:40;99773.09;;;17.49;100.00
41945;BME280;63122;52.424;13.458;2023-08-06T09:51:38;99770.56;;;17.54;100.00
41945;BME280;63122;52.424;13.458;2023-08-06T09:53:37;99766.56;;;17.45;100.00
41945;BME280;63122;52.424;13.458;2023-08-06T09:55:34;99771.06;;;17.44;100.00
41945;BME280;63122;52.424;13.458;2023-08-06T09:57:30;99760.25;;;17.39;100.00
41945;BME280;63122;52.424;13.458;2023-08-06T09:59:24;99760.53;;;17.31;100.00
41945;BME280;63122;52.424;13.458;2023-08-06T10:01:19;99763.16;;;17.37;100.00
41945;BME280;63122;52.424;13.458;2023-08-06T10:03:16;99766.97;;;17.48;100.00
41945;BME280;63122;52.424;13.458;2023-08-06T10:05:12;99758.53;;;17.51;100.00
41945;BME280;63122;52.424;13.458;2023-08-06T10:07:08;99752.59;;;17.49;100.00